Time;durP1;ratioP1;P1;durP2;ratioP2;P2;SDS_P1;SDS_P2;PMS_P1;PMS_P2;Temp;Humidity;BMP_temperature;BMP_pressure;BME280_temperature;BME280_humidity;BME280_pressure;Samples;Min_cycle;Max_cycle;Signal;HPM_P1;HPM_P2
2021/07/08 00:01:25;;;;;;;5.55;3.75;;;;;;;;;;5097833;28;20072;-69
2021/07/08 00:03:51;;;;;;;6.18;3.85;;;;;;;;;;5076384;28;20389;-69
2021/07/08 00:06:17;;;;;;;5.63;3.85;;;;;;;;;;5076701;28;20020;-69
2021/07/08 00:08:43;;;;;;;6.15;3.85;;;;;;;;;;5094987;28;20088;-69
2021/07/08 00:11:09;;;;;;;5.63;3.88;;;;;;;;;;5094719;28;20051;-69
2021/07/08 00:13:35;;;;;;;5.95;4.15;;;;;;;;;;5094864;28;20414;-69
2021/07/08 00:16:01;;;;;;;6.93;3.90;;;;;;;;;;5094424;28;20020;-69
2021/07/08 00:18:28;;;;;;;6.85;4.18;;;;;;;;;;5094537;28;20035;-69
2021/07/08 00:20:55;;;;;;;6.85;4.13;;;;;;;;;;5094659;28;20024;-70
2021/07/08 00:23:21;;;;;;;5.63;3.67;;;;;;;;;;5094737;28;20024;-69
2021/07/08 00:25:48;;;;;;;6.25;4.15;;;;;;;;;;5076406;28;20111;-70
2021/07/08 00:28:15;;;;;;;7.70;3.90;;;;;;;;;;5076266;28;20024;-69
2021/07/08 00:30:42;;;;;;;9.00;3.88;;;;;;;;;;5094552;28;20066;-69
2021/07/08 00:33:08;;;;;;;5.65;4.07;;;;;;;;;;5094445;28;20074;-69
2021/07/08 00:35:34;;;;;;;5.32;3.65;;;;;;;;;;5094514;28;20023;-69
2021/07/08 00:38:01;;;;;;;8.52;3.95;;;;;;;;;;5094390;28;20028;-70
2021/07/08 00:40:27;;;;;;;5.25;3.70;;;;;;;;;;5094317;28;20027;-69
2021/07/08 00:42:53;;;;;;;7.43;4.32;;;;;;;;;;5094042;28;20028;-70
2021/07/08 00:45:20;;;;;;;6.25;3.45;;;;;;;;;;5075825;28;20111;-69
2021/07/08 00:47:47;;;;;;;6.50;4.38;;;;;;;;;;5093951;28;20527;-70
2021/07/08 00:50:14;;;;;;;6.47;3.90;;;;;;;;;;5093900;28;20389;-69
2021/07/08 00:52:41;;;;;;;7.15;4.18;;;;;;;;;;5094086;28;20016;-69
2021/07/08 00:55:08;;;;;;;6.10;3.85;;;;;;;;;;5094032;28;20016;-70
2021/07/08 00:57:35;;;;;;;5.18;3.85;;;;;;;;;;5093755;28;20036;-69
2021/07/08 01:00:01;;;;;;;6.10;4.10;;;;;;;;;;5093942;28;20027;-70
2021/07/08 01:02:28;;;;;;;6.40;3.92;;;;;;;;;;5093838;28;20059;-69
2021/07/08 01:04:54;;;;;;;5.30;3.70;;;;;;;;;;5093868;28;20020;-69
2021/07/08 01:07:21;;;;;;;5.43;3.63;;;;;;;;;;5093597;28;20073;-69
2021/07/08 01:09:48;;;;;;;7.00;3.90;;;;;;;;;;5073503;28;20101;-70
2021/07/08 01:12:14;;;;;;;5.38;3.83;;;;;;;;;;5073407;28;20058;-69
2021/07/08 01:14:40;;;;;;;6.13;4.00;;;;;;;;;;5071898;28;20047;-69
2021/07/08 01:17:06;;;;;;;6.50;3.97;;;;;;;;;;5071820;28;20124;-70
2021/07/08 01:19:34;;;;;;;6.05;3.40;;;;;;;;;;5073095;28;20044;-70
2021/07/08 01:22:01;;;;;;;7.60;4.30;;;;;;;;;;5072926;28;20111;-69
2021/07/08 01:24:27;;;;;;;6.07;4.18;;;;;;;;;;5073341;28;20028;-69
2021/07/08 01:26:54;;;;;;;6.97;4.38;;;;;;;;;;5073192;28;20036;-69
2021/07/08 01:29:20;;;;;;;6.63;3.95;;;;;;;;;;5073110;28;20054;-69
2021/07/08 01:31:46;;;;;;;5.38;3.42;;;;;;;;;;5073006;28;20440;-69
2021/07/08 01:34:12;;;;;;;5.72;3.92;;;;;;;;;;5071714;28;20020;-69
2021/07/08 01:36:39;;;;;;;6.90;4.47;;;;;;;;;;5071345;28;20374;-69
2021/07/08 01:39:05;;;;;;;6.20;4.13;;;;;;;;;;5073097;28;20035;-69
2021/07/08 01:41:31;;;;;;;8.93;3.70;;;;;;;;;;5072816;28;20035;-69
2021/07/08 01:44:00;;;;;;;6.05;4.03;;;;;;;;;;5072594;28;20016;-69
2021/07/08 01:46:26;;;;;;;6.65;4.38;;;;;;;;;;5071452;28;20031;-69
2021/07/08 01:48:52;;;;;;;8.25;4.00;;;;;;;;;;5072489;28;20024;-69
2021/07/08 01:51:24;;;;;;;9.82;3.70;;;;;;;;;;5072705;28;20036;-69
2021/07/08 01:53:50;;;;;;;;;;;;;;;;;;5072114;28;20115;-69
2021/07/08 01:56:17;;;;;;;5.93;4.38;;;;;;;;;;5072405;28;19999;-69
2021/07/08 01:58:43;;;;;;;5.75;3.80;;;;;;;;;;5072391;28;20028;-69
2021/07/08 02:01:10;;;;;;;5.28;3.72;;;;;;;;;;5071272;28;20009;-70
2021/07/08 02:03:37;;;;;;;7.40;4.15;;;;;;;;;;5071222;28;20455;-69
2021/07/08 02:06:03;;;;;;;5.47;3.80;;;;;;;;;;5072494;28;20104;-69
2021/07/08 02:08:30;;;;;;;6.32;3.90;;;;;;;;;;5072516;28;20021;-69
2021/07/08 02:10:56;;;;;;;7.65;3.90;;;;;;;;;;5072027;28;20039;-69
2021/07/08 02:13:22;;;;;;;6.57;4.10;;;;;;;;;;5072093;28;20082;-69
2021/07/08 02:15:48;;;;;;;7.68;4.20;;;;;;;;;;5070717;28;20043;-69
2021/07/08 02:18:14;;;;;;;6.18;3.80;;;;;;;;;;5071989;28;20089;-69
2021/07/08 02:20:41;;;;;;;8.45;4.13;;;;;;;;;;5071107;28;20021;-69
2021/07/08 02:23:07;;;;;;;7.80;4.25;;;;;;;;;;5071035;28;20028;-69
2021/07/08 02:25:33;;;;;;;8.18;4.70;;;;;;;;;;5070492;28;20032;-69
2021/07/08 02:27:59;;;;;;;8.48;4.30;;;;;;;;;;5072080;28;20027;-69
2021/07/08 02:30:26;;;;;;;7.10;4.40;;;;;;;;;;5072190;28;20025;-69
2021/07/08 02:32:53;;;;;;;7.60;5.13;;;;;;;;;;5072034;28;20029;-69
2021/07/08 02:35:20;;;;;;;8.68;4.90;;;;;;;;;;5072129;28;20373;-69
2021/07/08 02:37:47;;;;;;;8.70;4.95;;;;;;;;;;5072116;28;20182;-69
2021/07/08 02:40:15;;;;;;;7.82;4.93;;;;;;;;;;5072151;28;20024;-69
2021/07/08 02:42:46;;;;;;;7.20;4.78;;;;;;;;;;5072043;28;20031;-69
2021/07/08 02:45:13;;;;;;;7.68;4.82;;;;;;;;;;5070681;28;20029;-69
2021/07/08 02:47:39;;;;;;;7.15;4.53;;;;;;;;;;5072135;28;20024;-69
2021/07/08 02:50:05;;;;;;;7.43;4.68;;;;;;;;;;5072244;28;20527;-69
2021/07/08 02:52:32;;;;;;;6.95;4.32;;;;;;;;;;5071909;28;20063;-70
2021/07/08 02:54:58;;;;;;;7.00;4.55;;;;;;;;;;5071931;28;20051;-69
2021/07/08 02:57:24;;;;;;;9.98;4.63;;;;;;;;;;5070780;28;20554;-69
2021/07/08 02:59:50;;;;;;;8.15;4.53;;;;;;;;;;5071929;28;20090;-69
2021/07/08 03:02:16;;;;;;;8.45;4.65;;;;;;;;;;5071749;28;20023;-70
2021/07/08 03:04:42;;;;;;;7.53;4.78;;;;;;;;;;5071679;28;20021;-70
2021/07/08 03:07:08;;;;;;;7.45;4.38;;;;;;;;;;5071785;28;20033;-69
2021/07/08 03:09:34;;;;;;;7.15;4.20;;;;;;;;;;5071644;28;20088;-69
2021/07/08 03:12:00;;;;;;;7.00;4.40;;;;;;;;;;5071685;28;20052;-69
2021/07/08 03:14:26;;;;;;;6.80;4.35;;;;;;;;;;5071734;28;20024;-69
2021/07/08 03:16:52;;;;;;;5.53;4.13;;;;;;;;;;5070301;28;20028;-69
2021/07/08 03:19:18;;;;;;;7.38;4.13;;;;;;;;;;5070337;28;20115;-69
2021/07/08 03:21:44;;;;;;;6.40;3.72;;;;;;;;;;5070176;28;20031;-69
2021/07/08 03:24:10;;;;;;;6.38;3.80;;;;;;;;;;5071351;28;20029;-70
2021/07/08 03:26:36;;;;;;;6.47;3.92;;;;;;;;;;5071974;28;20428;-69
2021/07/08 03:29:03;;;;;;;6.75;4.65;;;;;;;;;;5071714;28;20051;-69
2021/07/08 03:31:29;;;;;;;6.97;3.75;;;;;;;;;;5071555;28;20016;-69
2021/07/08 03:33:55;;;;;;;5.72;3.85;;;;;;;;;;5070159;28;20024;-69
2021/07/08 03:36:21;;;;;;;5.38;3.80;;;;;;;;;;5071473;28;20109;-69
2021/07/08 03:38:47;;;;;;;8.25;3.60;;;;;;;;;;5074282;28;20082;-69
2021/07/08 03:41:13;;;;;;;6.47;3.83;;;;;;;;;;5073907;28;20012;-69
2021/07/08 03:43:39;;;;;;;9.00;4.40;;;;;;;;;;5075320;28;20572;-69
2021/07/08 03:46:05;;;;;;;10.32;4.43;;;;;;;;;;5075067;28;20021;-69
2021/07/08 03:48:31;;;;;;;6.82;4.75;;;;;;;;;;5075177;28;20088;-69
2021/07/08 03:50:58;;;;;;;5.85;3.95;;;;;;;;;;5073697;28;20028;-69
2021/07/08 03:53:24;;;;;;;5.82;3.85;;;;;;;;;;5073517;28;20043;-69
2021/07/08 03:55:51;;;;;;;6.10;4.05;;;;;;;;;;5074996;28;20469;-69
2021/07/08 03:58:17;;;;;;;5.80;4.10;;;;;;;;;;5075001;28;20148;-69
2021/07/08 04:00:43;;;;;;;6.10;4.38;;;;;;;;;;5074485;28;20425;-69
2021/07/08 04:03:14;;;;;;;6.25;4.32;;;;;;;;;;5074441;28;20496;-69
2021/07/08 04:05:42;;;;;;;5.85;3.70;;;;;;;;;;5074671;28;20052;-69
2021/07/08 04:08:09;;;;;;;8.35;4.45;;;;;;;;;;5074709;28;20123;-69
2021/07/08 04:10:37;;;;;;;6.45;4.30;;;;;;;;;;5074471;28;20026;-69
2021/07/08 04:13:06;;;;;;;7.20;4.20;;;;;;;;;;5074843;28;20078;-69
2021/07/08 04:15:32;;;;;;;6.80;4.13;;;;;;;;;;5074403;28;20028;-69
2021/07/08 04:17:59;;;;;;;6.57;4.70;;;;;;;;;;5074392;28;20036;-69
2021/07/08 04:20:25;;;;;;;6.80;4.40;;;;;;;;;;5074391;28;20423;-69
2021/07/08 04:22:52;;;;;;;5.82;4.00;;;;;;;;;;5074281;28;20028;-69
2021/07/08 04:25:18;;;;;;;7.20;4.03;;;;;;;;;;5074184;28;20358;-69
2021/07/08 04:27:44;;;;;;;7.18;3.83;;;;;;;;;;5074295;28;20021;-69
2021/07/08 04:30:11;;;;;;;6.07;4.13;;;;;;;;;;5074319;28;20032;-69
2021/07/08 04:32:38;;;;;;;6.43;4.20;;;;;;;;;;5073120;28;20028;-69
2021/07/08 04:35:04;;;;;;;5.72;3.75;;;;;;;;;;5074048;28;20020;-69
2021/07/08 04:37:36;;;;;;;5.75;3.78;;;;;;;;;;5073839;28;20035;-69
2021/07/08 04:40:02;;;;;;;6.72;4.22;;;;;;;;;;5074103;28;20028;-69
2021/07/08 04:42:28;;;;;;;5.07;3.50;;;;;;;;;;5072798;28;20028;-69
2021/07/08 04:44:54;;;;;;;5.45;3.67;;;;;;;;;;5074061;28;20021;-69
2021/07/08 04:47:20;;;;;;;6.15;3.95;;;;;;;;;;5073954;28;20028;-69
2021/07/08 04:49:46;;;;;;;5.55;3.67;;;;;;;;;;5073378;28;20025;-69
2021/07/08 04:52:12;;;;;;;6.00;3.85;;;;;;;;;;5073600;28;20033;-69
2021/07/08 04:54:39;;;;;;;7.30;4.43;;;;;;;;;;5073603;28;20031;-70
2021/07/08 04:57:05;;;;;;;6.13;3.90;;;;;;;;;;5073559;28;20036;-69
2021/07/08 04:59:32;;;;;;;6.68;3.95;;;;;;;;;;5073682;28;20048;-69
2021/07/08 05:01:58;;;;;;;5.93;4.15;;;;;;;;;;5073699;28;20104;-69
2021/07/08 05:04:24;;;;;;;8.55;3.88;;;;;;;;;;5073706;28;20017;-69
2021/07/08 05:06:50;;;;;;;5.40;3.90;;;;;;;;;;5073550;28;20029;-69
2021/07/08 05:09:16;;;;;;;6.93;4.32;;;;;;;;;;5073516;28;20104;-69
2021/07/08 05:11:42;;;;;;;5.80;3.88;;;;;;;;;;5073151;28;20497;-70
2021/07/08 05:14:09;;;;;;;6.13;4.03;;;;;;;;;;5073354;28;20020;-69
2021/07/08 05:16:35;;;;;;;6.40;4.25;;;;;;;;;;5073120;28;20021;-69
2021/07/08 05:19:01;;;;;;;7.95;4.00;;;;;;;;;;5073381;28;20033;-69
2021/07/08 05:21:27;;;;;;;6.45;4.05;;;;;;;;;;5071847;28;20626;-69
2021/07/08 05:23:57;;;;;;;8.35;4.22;;;;;;;;;;5073297;28;20031;-70
2021/07/08 05:26:25;;;;;;;6.30;3.92;;;;;;;;;;5073041;28;20484;-70
2021/07/08 05:28:51;;;;;;;5.70;3.92;;;;;;;;;;5071761;28;20020;-69
2021/07/08 05:31:17;;;;;;;7.47;3.97;;;;;;;;;;5072921;28;20540;-69
2021/07/08 05:33:43;;;;;;;5.43;3.63;;;;;;;;;;5071630;28;20149;-69
2021/07/08 05:36:09;;;;;;;7.47;3.95;;;;;;;;;;5072691;28;20103;-69
2021/07/08 05:38:35;;;;;;;5.85;3.65;;;;;;;;;;5072839;28;20025;-69
2021/07/08 05:41:01;;;;;;;6.55;3.83;;;;;;;;;;5072820;28;20023;-70
2021/07/08 05:43:27;;;;;;;6.75;3.67;;;;;;;;;;5071583;28;20496;-69
2021/07/08 05:45:53;;;;;;;5.82;4.00;;;;;;;;;;5071275;28;20094;-69
2021/07/08 05:48:20;;;;;;;5.72;3.83;;;;;;;;;;5072375;28;20021;-70
2021/07/08 05:50:46;;;;;;;6.75;3.95;;;;;;;;;;5072409;28;20027;-69
2021/07/08 05:53:12;;;;;;;6.00;3.95;;;;;;;;;;5072467;28;20028;-69
2021/07/08 05:55:38;;;;;;;6.72;4.07;;;;;;;;;;5072401;28;20089;-70
2021/07/08 05:58:04;;;;;;;5.68;3.78;;;;;;;;;;5072061;28;20032;-70
2021/07/08 06:00:30;;;;;;;7.15;4.03;;;;;;;;;;5071373;28;20024;-69
2021/07/08 06:02:56;;;;;;;7.55;3.80;;;;;;;;;;5072237;28;20104;-70
2021/07/08 06:05:22;;;;;;;7.05;3.80;;;;;;;;;;5071774;28;20032;-70
2021/07/08 06:07:49;;;;;;;7.70;3.72;;;;;;;;;;5072075;28;20021;-70
2021/07/08 06:10:15;;;;;;;8.23;4.20;;;;;;;;;;5072259;28;20477;-69
2021/07/08 06:12:41;;;;;;;7.18;3.47;;;;;;;;;;5071999;28;20044;-70
2021/07/08 06:15:08;;;;;;;6.10;3.90;;;;;;;;;;5072057;28;20086;-70
2021/07/08 06:17:34;;;;;;;8.00;3.70;;;;;;;;;;5070614;28;20036;-70
2021/07/08 06:20:01;;;;;;;4.70;3.53;;;;;;;;;;5072029;28;20078;-70
2021/07/08 06:22:27;;;;;;;7.28;3.92;;;;;;;;;;5072018;28;20503;-69
2021/07/08 06:24:54;;;;;;;5.72;3.75;;;;;;;;;;5071865;28;20098;-70
2021/07/08 06:27:20;;;;;;;6.75;3.42;;;;;;;;;;5070704;28;20081;-70
2021/07/08 06:29:46;;;;;;;6.18;3.83;;;;;;;;;;5072357;28;20037;-69
2021/07/08 06:32:15;;;;;;;6.65;3.78;;;;;;;;;;5070790;28;20025;-70
2021/07/08 06:34:42;;;;;;;7.25;3.85;;;;;;;;;;5071971;28;20067;-70
2021/07/08 06:37:08;;;;;;;6.10;3.95;;;;;;;;;;5071780;28;20081;-70
2021/07/08 06:39:34;;;;;;;6.63;4.15;;;;;;;;;;5072420;28;20095;-70
2021/07/08 06:42:00;;;;;;;7.43;4.15;;;;;;;;;;5072002;28;20077;-69
2021/07/08 06:44:26;;;;;;;5.03;3.50;;;;;;;;;;5071847;28;20020;-70
2021/07/08 06:46:54;;;;;;;5.82;3.25;;;;;;;;;;5072041;28;20067;-69
2021/07/08 06:49:20;;;;;;;6.65;3.90;;;;;;;;;;5070402;28;20029;-70
2021/07/08 06:51:47;;;;;;;5.95;3.88;;;;;;;;;;5070601;28;20021;-69
2021/07/08 06:54:13;;;;;;;5.70;3.67;;;;;;;;;;5071630;28;20021;-69
2021/07/08 06:56:39;;;;;;;5.85;3.42;;;;;;;;;;5071632;28;20028;-70
2021/07/08 06:59:05;;;;;;;5.53;3.40;;;;;;;;;;5071600;28;20048;-70
2021/07/08 07:01:31;;;;;;;7.32;3.97;;;;;;;;;;5070459;28;20036;-70
2021/07/08 07:03:57;;;;;;;6.22;3.70;;;;;;;;;;5071731;28;20020;-70
2021/07/08 07:06:23;;;;;;;5.88;3.67;;;;;;;;;;5071830;28;20025;-70
2021/07/08 07:08:49;;;;;;;7.30;3.60;;;;;;;;;;5071649;28;20025;-70
2021/07/08 07:11:16;;;;;;;6.20;3.70;;;;;;;;;;5072052;28;20032;-69
2021/07/08 07:13:42;;;;;;;5.82;3.42;;;;;;;;;;5074309;28;20501;-69
2021/07/08 07:16:08;;;;;;;6.40;3.95;;;;;;;;;;5075376;28;20461;-70
2021/07/08 07:18:34;;;;;;;7.30;3.50;;;;;;;;;;5075653;28;20037;-69
2021/07/08 07:21:00;;;;;;;6.85;4.05;;;;;;;;;;5074206;28;20070;-70
2021/07/08 07:23:26;;;;;;;7.30;3.85;;;;;;;;;;5075468;28;20031;-70
2021/07/08 07:25:53;;;;;;;5.30;2.88;;;;;;;;;;5075273;28;20052;-70
2021/07/08 07:28:19;;;;;;;6.28;3.50;;;;;;;;;;5075342;28;20095;-70
2021/07/08 07:30:45;;;;;;;4.35;3.00;;;;;;;;;;5075378;28;20452;-70
2021/07/08 07:33:11;;;;;;;6.43;3.65;;;;;;;;;;5075166;28;20047;-70
2021/07/08 07:35:37;;;;;;;6.97;3.50;;;;;;;;;;5074952;28;20035;-70
2021/07/08 07:38:07;;;;;;;7.35;4.00;;;;;;;;;;5075016;28;20045;-70
2021/07/08 07:40:33;;;;;;;6.18;3.22;;;;;;;;;;5075252;28;20486;-69
2021/07/08 07:42:59;;;;;;;8.13;3.95;;;;;;;;;;5075251;28;20099;-70
2021/07/08 07:45:26;;;;;;;5.30;3.50;;;;;;;;;;5073584;28;20032;-70
2021/07/08 07:47:52;;;;;;;5.10;3.40;;;;;;;;;;5074765;28;20103;-70
2021/07/08 07:50:19;;;;;;;6.95;4.10;;;;;;;;;;5074980;28;20470;-70
2021/07/08 07:52:45;;;;;;;6.53;3.55;;;;;;;;;;5074938;28;20025;-70
2021/07/08 07:55:13;;;;;;;5.70;3.50;;;;;;;;;;5073382;28;20016;-70
2021/07/08 07:57:41;;;;;;;7.38;3.63;;;;;;;;;;5073316;28;20489;-70
2021/07/08 08:00:07;;;;;;;6.15;3.25;;;;;;;;;;5074536;28;20017;-70
2021/07/08 08:02:33;;;;;;;6.47;3.17;;;;;;;;;;5074681;28;20419;-70
2021/07/08 08:10:18;;;;;;;7.18;3.50;;;;;;;;;;5074705;28;20039;-70
2021/07/08 08:12:44;;;;;;;6.25;3.67;;;;;;;;;;5074314;28;20047;-70
2021/07/08 08:15:10;;;;;;;5.65;3.45;;;;;;;;;;5074515;28;20036;-70
2021/07/08 08:17:37;;;;;;;7.00;3.45;;;;;;;;;;5074196;28;20086;-70
2021/07/08 08:20:07;;;;;;;6.65;3.63;;;;;;;;;;5074558;28;20499;-69
2021/07/08 08:22:33;;;;;;;6.15;3.20;;;;;;;;;;5074173;28;20017;-70
2021/07/08 08:24:59;;;;;;;5.32;3.70;;;;;;;;;;5073950;28;20051;-70
2021/07/08 08:27:25;;;;;;;7.13;3.53;;;;;;;;;;5074302;28;20032;-70
2021/07/08 08:29:51;;;;;;;6.93;3.90;;;;;;;;;;5072863;28;20025;-70
2021/07/08 08:32:17;;;;;;;7.57;3.92;;;;;;;;;;5072808;28;20118;-70
2021/07/08 08:34:43;;;;;;;5.18;3.35;;;;;;;;;;5072902;28;20028;-70
2021/07/08 08:37:10;;;;;;;6.07;3.72;;;;;;;;;;5074143;28;20444;-70
2021/07/08 08:39:36;;;;;;;5.40;3.55;;;;;;;;;;5074076;28;20020;-70
2021/07/08 08:42:02;;;;;;;7.10;3.78;;;;;;;;;;5073864;28;20028;-70
2021/07/08 08:44:28;;;;;;;6.00;3.90;;;;;;;;;;5072530;28;20350;-70
2021/07/08 08:46:54;;;;;;;8.50;3.67;;;;;;;;;;5072705;28;20020;-70
2021/07/08 08:49:20;;;;;;;7.05;3.78;;;;;;;;;;5073042;28;20112;-70
2021/07/08 08:51:47;;;;;;;6.25;4.30;;;;;;;;;;5073973;28;20100;-70
2021/07/08 08:54:13;;;;;;;6.03;3.60;;;;;;;;;;5073865;28;20434;-70
2021/07/08 08:56:39;;;;;;;6.40;3.63;;;;;;;;;;5073918;28;20165;-70
2021/07/08 08:59:05;;;;;;;6.10;3.83;;;;;;;;;;5073841;28;20067;-70
2021/07/08 09:01:33;;;;;;;6.38;4.25;;;;;;;;;;5072451;28;20025;-70
2021/07/08 09:03:59;;;;;;;7.25;3.78;;;;;;;;;;5073731;28;20016;-70
2021/07/08 09:06:25;;;;;;;7.53;4.10;;;;;;;;;;5073465;28;20111;-70
2021/07/08 09:08:52;;;;;;;5.72;3.75;;;;;;;;;;5073787;28;20024;-70
2021/07/08 09:11:20;;;;;;;6.40;3.97;;;;;;;;;;5073374;28;20546;-70
2021/07/08 09:13:49;;;;;;;6.32;3.80;;;;;;;;;;5073557;28;20051;-70
2021/07/08 09:16:15;;;;;;;8.65;3.85;;;;;;;;;;5073075;28;20442;-70
2021/07/08 09:18:42;;;;;;;8.85;3.90;;;;;;;;;;5073222;28;20381;-71
2021/07/08 09:21:18;;;;;;;6.55;3.85;;;;;;;;;;5073256;28;20016;-70
2021/07/08 09:24:03;;;;;;;8.70;4.00;;;;;;;;;;5073180;28;20023;-70
2021/07/08 09:26:30;;;;;;;6.25;3.97;;;;;;;;;;5073147;28;20044;-70
2021/07/08 09:29:06;;;;;;;6.25;4.13;;;;;;;;;;5073070;28;20021;-70
2021/07/08 09:31:32;;;;;;;6.07;3.90;;;;;;;;;;5073267;28;20099;-70
2021/07/08 09:34:12;;;;;;;7.18;4.28;;;;;;;;;;5072905;28;20066;-70
2021/07/08 09:36:38;;;;;;;6.13;4.05;;;;;;;;;;5071351;28;20046;-70
2021/07/08 09:39:07;;;;;;;5.32;3.60;;;;;;;;;;5072521;28;20040;-70
2021/07/08 09:41:33;;;;;;;7.80;3.80;;;;;;;;;;5072775;28;20012;-70
2021/07/08 09:43:59;;;;;;;7.65;3.70;;;;;;;;;;5072732;28;20290;-70
2021/07/08 09:46:35;;;;;;;6.30;3.88;;;;;;;;;;5072416;28;21047;-70
2021/07/08 09:49:05;;;;;;;7.38;4.43;;;;;;;;;;5072337;28;20029;-70
2021/07/08 09:51:32;;;;;;;7.22;4.28;;;;;;;;;;5072270;28;20099;-70
2021/07/08 09:54:06;;;;;;;8.07;4.38;;;;;;;;;;5071268;28;20031;-70
2021/07/08 09:56:54;;;;;;;8.00;4.35;;;;;;;;;;5072244;28;20058;-70
2021/07/08 09:59:21;;;;;;;5.82;3.65;;;;;;;;;;5072144;28;20029;-70
2021/07/08 10:01:58;;;;;;;8.35;4.03;;;;;;;;;;5072016;28;20495;-70
2021/07/08 10:04:24;;;;;;;10.48;4.25;;;;;;;;;;5072176;28;20032;-70
2021/07/08 10:06:50;;;;;;;6.32;3.88;;;;;;;;;;5072322;28;20581;-70
2021/07/08 10:09:18;;;;;;;8.57;4.07;;;;;;;;;;5072254;28;20024;-70
2021/07/08 10:11:50;;;;;;;6.18;3.80;;;;;;;;;;5072144;28;20530;-70
2021/07/08 10:14:18;;;;;;;8.25;4.15;;;;;;;;;;5072092;28;20056;-70
2021/07/08 10:16:47;;;;;;;7.65;4.30;;;;;;;;;;5072203;28;20037;-70
2021/07/08 10:19:16;;;;;;;7.07;4.43;;;;;;;;;;5072281;28;20097;-70
2021/07/08 10:21:43;;;;;;;6.05;4.13;;;;;;;;;;5072300;28;20032;-70
2021/07/08 10:24:09;;;;;;;10.90;4.68;;;;;;;;;;5072299;28;20021;-70
2021/07/08 10:26:36;;;;;;;7.97;4.60;;;;;;;;;;5072123;28;20024;-70
2021/07/08 10:29:02;;;;;;;8.38;4.32;;;;;;;;;;5071000;28;20120;-70
2021/07/08 10:31:29;;;;;;;6.30;4.03;;;;;;;;;;5070742;28;20031;-70
2021/07/08 10:34:07;;;;;;;7.90;4.13;;;;;;;;;;5070631;28;20024;-70
2021/07/08 10:36:34;;;;;;;8.43;4.95;;;;;;;;;;5071986;28;20028;-70
2021/07/08 10:39:07;;;;;;;9.43;4.97;;;;;;;;;;5071965;28;20028;-70
2021/07/08 10:41:36;;;;;;;7.72;4.30;;;;;;;;;;5071774;28;20063;-70
2021/07/08 10:44:02;;;;;;;6.90;4.22;;;;;;;;;;5070739;28;20033;-70
2021/07/08 10:46:35;;;;;;;6.30;4.38;;;;;;;;;;5070143;28;20031;-70
2021/07/08 10:49:12;;;;;;;6.68;4.18;;;;;;;;;;5071828;28;20027;-70
2021/07/08 10:51:43;;;;;;;6.80;4.70;;;;;;;;;;5071514;28;20035;-70
2021/07/08 10:54:29;;;;;;;11.02;4.13;;;;;;;;;;5071415;28;20078;-70
2021/07/08 10:57:00;;;;;;;8.48;4.60;;;;;;;;;;5071573;28;20215;-70
2021/07/08 10:59:45;;;;;;;6.28;3.95;;;;;;;;;;5071885;28;20051;-70
2021/07/08 11:02:31;;;;;;;5.80;3.92;;;;;;;;;;5070484;28;20111;-70
2021/07/08 11:04:57;;;;;;;8.65;4.35;;;;;;;;;;5071798;28;20083;-70
2021/07/08 11:07:26;;;;;;;5.68;3.90;;;;;;;;;;5071761;28;20023;-70
2021/07/08 11:10:04;;;;;;;6.32;4.00;;;;;;;;;;5071692;28;20056;-70
2021/07/08 11:12:34;;;;;;;7.32;4.35;;;;;;;;;;5066604;28;20041;-70
2021/07/08 11:15:01;;;;;;;6.80;4.10;;;;;;;;;;5051338;28;20064;-70
2021/07/08 11:17:27;;;;;;;5.55;3.75;;;;;;;;;;5051388;28;20029;-70
2021/07/08 11:19:54;;;;;;;6.97;4.72;;;;;;;;;;5051529;28;20432;-70
2021/07/08 11:22:25;;;;;;;6.43;4.38;;;;;;;;;;5051391;28;20051;-70
2021/07/08 11:24:53;;;;;;;7.53;4.20;;;;;;;;;;5050149;28;20028;-70
2021/07/08 11:27:19;;;;;;;8.50;3.63;;;;;;;;;;5051369;28;20369;-70
2021/07/08 11:29:47;;;;;;;6.70;4.35;;;;;;;;;;5050182;28;20025;-70
2021/07/08 11:32:38;;;;;;;5.75;3.58;;;;;;;;;;5050061;28;20032;-70
2021/07/08 11:35:05;;;;;;;6.82;4.20;;;;;;;;;;5050049;28;20403;-70
2021/07/08 11:37:43;;;;;;;5.90;4.25;;;;;;;;;;5051422;28;20044;-70
2021/07/08 11:40:09;;;;;;;8.18;4.53;;;;;;;;;;5051372;28;20013;-70
2021/07/08 11:42:36;;;;;;;6.13;4.20;;;;;;;;;;5051455;28;20025;-70
2021/07/08 11:45:04;;;;;;;7.18;3.95;;;;;;;;;;5050949;28;20032;-70
2021/07/08 11:47:39;;;;;;;7.13;4.00;;;;;;;;;;5051204;28;20075;-70
2021/07/08 11:50:06;;;;;;;9.20;4.10;;;;;;;;;;5051287;28;20032;-70
2021/07/08 11:52:32;;;;;;;6.75;3.97;;;;;;;;;;5051277;28;20107;-70
2021/07/08 11:54:59;;;;;;;8.40;4.18;;;;;;;;;;5051248;28;20047;-70
2021/07/08 11:57:25;;;;;;;6.15;3.70;;;;;;;;;;5051425;28;20115;-70
2021/07/08 11:59:52;;;;;;;5.68;3.88;;;;;;;;;;5053872;28;20017;-70
2021/07/08 12:02:31;;;;;;;8.90;3.90;;;;;;;;;;5054617;28;20033;-70
2021/07/08 12:05:13;;;;;;;6.68;4.18;;;;;;;;;;5054660;28;20052;-70
2021/07/08 12:07:42;;;;;;;8.57;4.27;;;;;;;;;;5053379;28;20029;-70
2021/07/08 12:10:09;;;;;;;7.10;4.03;;;;;;;;;;5054526;28;20258;-70
2021/07/08 12:12:36;;;;;;;5.70;3.88;;;;;;;;;;5052981;28;20056;-70
2021/07/08 12:15:03;;;;;;;6.03;3.95;;;;;;;;;;5054339;28;20040;-70
2021/07/08 12:17:30;;;;;;;5.72;4.10;;;;;;;;;;5054143;28;20103;-70
2021/07/08 12:20:07;;;;;;;7.75;3.78;;;;;;;;;;5054326;28;20027;-70
2021/07/08 12:22:33;;;;;;;6.43;3.60;;;;;;;;;;5054424;28;20061;-70
2021/07/08 12:24:59;;;;;;;6.05;3.72;;;;;;;;;;5054322;28;20028;-70
2021/07/08 12:27:26;;;;;;;10.13;4.05;;;;;;;;;;5054387;28;20036;-70
2021/07/08 12:29:53;;;;;;;5.88;4.00;;;;;;;;;;5052945;28;20029;-70
2021/07/08 12:32:21;;;;;;;5.30;3.42;;;;;;;;;;5054380;28;20021;-70
2021/07/08 12:34:53;;;;;;;4.90;3.72;;;;;;;;;;5052965;28;20112;-70
2021/07/08 12:37:23;;;;;;;4.93;3.33;;;;;;;;;;5054303;28;20116;-70
2021/07/08 12:39:57;;;;;;;7.43;3.72;;;;;;;;;;5054271;28;20112;-70
2021/07/08 12:42:24;;;;;;;4.80;3.47;;;;;;;;;;5052699;28;20485;-70
2021/07/08 12:44:52;;;;;;;6.25;3.80;;;;;;;;;;5054131;28;20029;-70
2021/07/08 12:47:19;;;;;;;4.93;3.22;;;;;;;;;;5054113;28;20025;-70
2021/07/08 12:49:48;;;;;;;6.43;3.78;;;;;;;;;;5053908;28;20044;-70
2021/07/08 12:52:15;;;;;;;9.50;3.60;;;;;;;;;;5053764;28;20021;-70
2021/07/08 12:54:41;;;;;;;6.07;3.50;;;;;;;;;;5052440;28;20036;-70
2021/07/08 12:57:08;;;;;;;6.88;3.22;;;;;;;;;;5053502;28;20032;-70
2021/07/08 12:59:35;;;;;;;5.82;3.45;;;;;;;;;;5052386;28;20029;-70
2021/07/08 13:02:01;;;;;;;5.30;3.40;;;;;;;;;;5052397;28;20009;-70
2021/07/08 13:04:34;;;;;;;5.25;2.97;;;;;;;;;;5053803;28;20078;-70
2021/07/08 13:07:01;;;;;;;5.82;3.35;;;;;;;;;;5053704;28;20021;-70
2021/07/08 13:09:28;;;;;;;5.55;3.17;;;;;;;;;;5051927;28;20436;-70
2021/07/08 13:11:54;;;;;;;5.53;3.22;;;;;;;;;;5052012;28;20044;-70
2021/07/08 13:14:27;;;;;;;4.68;3.17;;;;;;;;;;5053311;28;20017;-70
2021/07/08 13:17:02;;;;;;;4.65;3.30;;;;;;;;;;5053319;28;20107;-70
2021/07/08 13:19:28;;;;;;;4.53;3.28;;;;;;;;;;5052007;28;20393;-70
2021/07/08 13:21:54;;;;;;;5.25;2.90;;;;;;;;;;5053538;28;20031;-70
2021/07/08 13:24:22;;;;;;;5.25;3.17;;;;;;;;;;5053257;28;20109;-70
2021/07/08 13:26:48;;;;;;;3.65;2.38;;;;;;;;;;5051903;28;20136;-70
2021/07/08 13:29:14;;;;;;;5.07;3.13;;;;;;;;;;5053244;28;20025;-70
2021/07/08 13:31:40;;;;;;;4.75;3.00;;;;;;;;;;5052960;28;20025;-70
2021/07/08 13:34:06;;;;;;;9.30;3.33;;;;;;;;;;5053098;28;20477;-70
2021/07/08 13:36:42;;;;;;;5.20;2.95;;;;;;;;;;5053065;28;20251;-70
2021/07/08 13:39:10;;;;;;;4.85;2.83;;;;;;;;;;5052988;28;20025;-70
2021/07/08 13:41:40;;;;;;;4.85;3.00;;;;;;;;;;5053021;28;20025;-70
2021/07/08 13:44:07;;;;;;;5.47;3.10;;;;;;;;;;5053011;28;20049;-70
2021/07/08 13:46:34;;;;;;;5.88;2.95;;;;;;;;;;5052943;28;20421;-70
2021/07/08 13:49:03;;;;;;;4.28;2.70;;;;;;;;;;5052792;28;20017;-70
2021/07/08 13:51:29;;;;;;;5.45;3.05;;;;;;;;;;5052538;28;20052;-70
2021/07/08 13:53:55;;;;;;;5.90;3.10;;;;;;;;;;5052781;28;20013;-70
2021/07/08 13:56:22;;;;;;;5.15;2.88;;;;;;;;;;5051255;28;20025;-70
2021/07/08 13:58:49;;;;;;;6.40;2.90;;;;;;;;;;5052599;28;20029;-70
2021/07/08 14:01:16;;;;;;;4.60;2.63;;;;;;;;;;5052601;28;20017;-70
2021/07/08 14:03:42;;;;;;;4.65;2.95;;;;;;;;;;5051251;28;20122;-70
2021/07/08 14:06:08;;;;;;;5.63;2.85;;;;;;;;;;5052413;28;20469;-70
2021/07/08 14:08:43;;;;;;;7.50;3.28;;;;;;;;;;5052546;28;20025;-70
2021/07/08 14:11:13;;;;;;;5.07;2.95;;;;;;;;;;5053178;28;20113;-70
2021/07/08 14:13:39;;;;;;;5.50;3.00;;;;;;;;;;5072096;28;20087;-70
2021/07/08 14:16:06;;;;;;;5.28;3.40;;;;;;;;;;5072343;28;20029;-70
2021/07/08 14:18:32;;;;;;;7.95;2.88;;;;;;;;;;5071844;28;20032;-70
2021/07/08 14:20:59;;;;;;;5.93;3.20;;;;;;;;;;5071343;28;20021;-70
2021/07/08 14:23:25;;;;;;;6.10;3.15;;;;;;;;;;5071882;28;20023;-70
2021/07/08 14:25:52;;;;;;;5.57;2.95;;;;;;;;;;5072250;28;20021;-70
2021/07/08 14:28:18;;;;;;;4.90;2.67;;;;;;;;;;5072268;28;20062;-70
2021/07/08 14:30:44;;;;;;;4.85;3.17;;;;;;;;;;5072039;28;20697;-70
2021/07/08 14:33:11;;;;;;;6.13;3.17;;;;;;;;;;5072222;28;20024;-70
2021/07/08 14:35:38;;;;;;;4.38;2.80;;;;;;;;;;5070578;28;20075;-70
2021/07/08 14:38:04;;;;;;;6.20;2.83;;;;;;;;;;5070585;28;20035;-70
2021/07/08 14:40:30;;;;;;;3.97;2.50;;;;;;;;;;5071855;28;20023;-70
2021/07/08 14:43:08;;;;;;;4.63;2.88;;;;;;;;;;5071606;28;20027;-70
2021/07/08 14:45:35;;;;;;;5.32;3.05;;;;;;;;;;5071614;28;20059;-70
2021/07/08 14:48:01;;;;;;;4.60;2.85;;;;;;;;;;5071572;28;20020;-70
2021/07/08 14:50:27;;;;;;;4.80;2.90;;;;;;;;;;5071639;28;20084;-70